• Join FlightAware (Why Join?)
  • Login
  • US Flag 
04:29PM EDT


 

Airport Tracker/Info


-or-


 

Live Flight TrackerFlight Track Log ✈ N199CG ✈ 15-Sep-2013 ✈ KILM - KHBI

Flight Track Log - Related Links

Times and Time Zones

All times are in EDT time to prevent confusion due to time zone crossing. See the N199CG flight status page for this flight to view local times or setup timezone preferences in your user account.

Time Position Orientation Groundspeed Altitude Reporting Facility
EDT Latitude Longitude Course Direction KTS MPH feet Rate Location/Type
04:21PM 34.4802 -78.1971 310° West  Level Estimated
04:22PM 34.5151 -78.2463 311° West  Level Estimated
04:23PM 34.5497 -78.2958 310° West  Level FlightAware Approximate
04:24PM 34.5844 -78.3453 310° West  Level FlightAware Approximate
04:25PM 34.6190 -78.3948 310° West  Level FlightAware Approximate
04:26PM 34.6535 -78.4444 310° West  Level FlightAware Approximate
04:27PM 34.6881 -78.4941 310° West  Level FlightAware Approximate
04:28PM 34.7227 -78.5437 310° West  Level FlightAware Approximate
04:29PM 34.7572 -78.5935 310° West  Level FlightAware Approximate
04:30PM 34.7917 -78.6432 310° West  Level FlightAware Approximate
04:31PM 34.8262 -78.6930 310° West  Level FlightAware Approximate
04:32PM 34.8607 -78.7429 310° West  Level FlightAware Approximate
04:33PM 34.8954 -78.7925 309° West  Level Estimated
04:34PM 34.9296 -78.8426 310° West  Level FlightAware Approximate
04:35PM 34.9644 -78.8923 314° West  Level Estimated
04:36PM 34.9996 -78.9414 311° West  Level FlightAware Approximate
04:37PM 35.0348 -78.9906 311° West  Level FlightAware Approximate
04:38PM 35.0694 -79.0405 307° West  Level Estimated
04:39PM 35.1034 -79.0909 310° West  Level FlightAware Approximate
04:40PM 35.1374 -79.1413 310° West  Level FlightAware Approximate
04:41PM 35.1714 -79.1919 309° West  Level FlightAware Approximate
04:42PM 35.2060 -79.2418 321° Northwest  Level Estimated
04:43PM 35.2406 -79.2917 305° West  Level Estimated
04:44PM 35.2744 -79.3425 309° West  Level FlightAware Approximate
04:45PM 35.3091 -79.3924 315° West  Level Estimated
04:46PM 35.3437 -79.4424 310° West  Level FlightAware Approximate
04:47PM 35.3782 -79.4925 313° West  Level Estimated
04:48PM 35.4128 -79.5425 309° West  Level Estimated
04:49PM 35.4253 -79.6119 282° West  Level FlightAware Approximate
04:50PM 35.4662 -79.6621 329° Northwest  Level Estimated
04:51PM 35.5070 -79.7124 329° Northwest  Level Estimated
04:52PM 35.5440 -79.7671 310° West  Level FlightAware Approximate
04:53PM 35.5862 -79.8158 332° Northwest  Level Estimated
04:54PM 35.6284 -79.8645 332° Northwest  Level Estimated
04:55PM 35.6500 -79.8833 332° Northwest  Level FlightAware Approximate
04:56PM 35.6545 -79.8948 332° Northwest  Level Estimated
04:57PM 35.6545 -79.8948 332° Northwest  Level Estimated